createdAt,value
2022-10-03T00:01:33.463Z,3.90
2022-10-03T00:04:47.846Z,3.70
2022-10-03T00:08:01.641Z,3.90
2022-10-03T00:11:09.214Z,4.40
2022-10-03T00:14:25.894Z,3.60
2022-10-03T00:17:42.311Z,4.00
2022-10-03T00:21:08.233Z,3.50
2022-10-03T00:24:24.780Z,3.90
2022-10-03T00:28:06.864Z,4.30
2022-10-03T00:34:32.016Z,3.90
2022-10-03T00:37:40.714Z,4.70
2022-10-03T00:41:12.256Z,3.70
2022-10-03T00:44:37.691Z,3.50
2022-10-03T00:47:47.518Z,3.80
2022-10-03T00:51:17.301Z,3.50
2022-10-03T00:54:37.334Z,3.90
2022-10-03T00:57:50.651Z,3.40
2022-10-03T01:01:02.584Z,3.70
2022-10-03T01:04:15.468Z,3.70
2022-10-03T01:07:48.129Z,3.60
2022-10-03T01:11:11.407Z,3.50
2022-10-03T01:14:24.863Z,3.30
2022-10-03T01:18:14.395Z,3.50
2022-10-03T01:21:45.591Z,3.40
2022-10-03T01:24:50.966Z,3.70
2022-10-03T01:28:39.105Z,4.10
2022-10-03T01:31:49.707Z,3.70
2022-10-03T01:35:06.424Z,4.10
2022-10-03T01:38:21.856Z,3.80
2022-10-03T01:41:23.330Z,4.20
2022-10-03T01:44:44.152Z,3.70
2022-10-03T01:47:54.836Z,3.70
2022-10-03T01:51:16.186Z,4.20
2022-10-03T01:54:42.458Z,4.20
2022-10-03T01:58:03.278Z,4.10
2022-10-03T02:01:42.239Z,4.50
2022-10-03T02:04:49.952Z,4.30
2022-10-03T02:08:05.158Z,4.40
2022-10-03T02:11:09.309Z,3.60
2022-10-03T02:14:22.589Z,4.40
2022-10-03T02:17:45.378Z,4.20
2022-10-03T02:21:07.571Z,4.20
2022-10-03T02:24:14.989Z,5.10
2022-10-03T02:27:35.217Z,3.80
2022-10-03T02:30:55.761Z,3.70
2022-10-03T02:34:24.131Z,3.90
2022-10-03T02:37:34.710Z,4.00
2022-10-03T02:41:01.008Z,4.60
2022-10-03T02:44:17.723Z,4.50
2022-10-03T02:47:46.419Z,5.10
2022-10-03T02:51:22.096Z,5.30
2022-10-03T02:54:29.541Z,6.10
2022-10-03T02:58:10.577Z,5.70
2022-10-03T03:01:42.680Z,4.60
2022-10-03T03:04:50.395Z,4.80
2022-10-03T03:08:33.035Z,4.50
2022-10-03T03:11:53.739Z,4.50
2022-10-03T03:15:12.328Z,4.90
2022-10-03T03:18:28.849Z,4.20
2022-10-03T03:21:57.700Z,3.30
2022-10-03T03:25:18.634Z,2.80
2022-10-03T03:28:45.713Z,2.80
2022-10-03T03:32:12.996Z,3.30
2022-10-03T03:35:33.236Z,3.00
2022-10-03T03:39:11.542Z,3.20
2022-10-03T03:42:12.985Z,3.10
2022-10-03T03:45:41.567Z,3.40
2022-10-03T03:48:50.988Z,3.30
2022-10-03T03:52:04.672Z,2.60
2022-10-03T03:55:33.647Z,2.60
2022-10-03T03:58:44.534Z,2.60
2022-10-03T04:02:04.008Z,3.10
2022-10-03T04:05:31.525Z,5.80
2022-10-03T04:09:03.131Z,4.90
2022-10-03T04:12:24.037Z,3.80
2022-10-03T04:15:44.030Z,3.10
2022-10-03T04:19:18.522Z,3.60
2022-10-03T04:22:42.916Z,3.20
2022-10-03T04:26:15.552Z,3.30
2022-10-03T04:29:42.009Z,3.80
2022-10-03T04:33:16.501Z,3.10
2022-10-03T04:36:32.973Z,3.20
2022-10-03T04:39:49.259Z,3.30
2022-10-03T04:42:57.771Z,3.00
2022-10-03T04:46:05.756Z,2.90
2022-10-03T04:49:26.167Z,3.10
2022-10-03T04:52:58.613Z,3.00
2022-10-03T04:56:21.833Z,3.50
2022-10-03T04:59:35.975Z,3.20
2022-10-03T05:02:59.377Z,3.10
2022-10-03T05:06:19.790Z,2.40
2022-10-03T05:09:51.142Z,2.40
2022-10-03T05:13:04.816Z,2.30
2022-10-03T05:16:29.625Z,2.50
2022-10-03T05:19:37.160Z,2.50
2022-10-03T05:23:25.608Z,2.70
2022-10-03T05:26:44.596Z,2.50
2022-10-03T05:30:03.135Z,2.80
2022-10-03T05:33:22.471Z,2.50
2022-10-03T05:36:23.954Z,2.70
2022-10-03T05:39:32.972Z,3.30
2022-10-03T05:42:44.356Z,3.60
2022-10-03T05:46:03.839Z,3.30
2022-10-03T05:49:23.726Z,3.10
2022-10-03T05:52:43.835Z,3.30
2022-10-03T05:56:04.081Z,3.80
2022-10-03T05:59:26.524Z,3.20
2022-10-03T06:02:51.295Z,2.90
2022-10-03T06:05:58.969Z,2.90
2022-10-03T06:09:25.263Z,2.80
2022-10-03T06:13:05.384Z,2.60
2022-10-03T06:16:26.004Z,2.40
2022-10-03T06:20:08.935Z,2.50
2022-10-03T06:23:37.368Z,2.70
2022-10-03T06:27:15.877Z,2.60
2022-10-03T06:30:21.875Z,3.10
2022-10-03T06:33:48.401Z,2.90
2022-10-03T06:36:54.656Z,2.00
2022-10-03T06:40:22.799Z,2.10
2022-10-03T06:44:10.880Z,2.10
2022-10-03T06:47:28.681Z,2.10
2022-10-03T06:50:49.806Z,2.00
2022-10-03T06:54:17.201Z,2.10
2022-10-03T06:57:43.529Z,1.80
2022-10-03T07:01:08.136Z,1.80
2022-10-03T07:04:12.731Z,2.20
2022-10-03T07:07:40.166Z,2.30
2022-10-03T07:11:09.086Z,2.50
2022-10-03T07:14:55.517Z,2.70
2022-10-03T07:17:59.577Z,2.80
2022-10-03T07:21:14.746Z,2.90
2022-10-03T07:24:40.875Z,2.20
2022-10-03T07:28:20.431Z,2.10
2022-10-03T07:31:25.193Z,2.00
2022-10-03T07:35:12.139Z,2.20
2022-10-03T07:38:47.178Z,2.40
2022-10-03T07:42:13.026Z,2.10
2022-10-03T07:45:30.621Z,2.30
2022-10-03T07:48:41.624Z,2.10
2022-10-03T07:52:25.325Z,1.90
2022-10-03T07:55:48.081Z,2.30
2022-10-03T07:58:58.742Z,1.60
2022-10-03T08:02:15.513Z,2.00
2022-10-03T08:05:25.000Z,2.30
2022-10-03T08:08:34.569Z,2.20
2022-10-03T08:12:10.219Z,2.20
2022-10-03T08:15:39.680Z,2.60
2022-10-03T08:19:20.289Z,2.00
2022-10-03T08:22:57.356Z,2.50
2022-10-03T08:26:06.946Z,2.80
2022-10-03T08:29:17.855Z,2.90
2022-10-03T08:32:48.737Z,3.50
2022-10-03T08:36:27.566Z,2.90
2022-10-03T08:39:37.945Z,3.20
2022-10-03T08:42:55.607Z,3.30
2022-10-03T08:46:06.016Z,3.00
2022-10-03T08:49:41.089Z,2.60
2022-10-03T08:53:12.302Z,2.40
2022-10-03T08:56:20.933Z,2.50
2022-10-03T08:59:50.532Z,2.70
2022-10-03T09:03:33.564Z,2.80
2022-10-03T09:07:23.658Z,2.60
2022-10-03T09:10:35.910Z,3.80
2022-10-03T09:13:57.153Z,4.30
2022-10-03T09:17:06.756Z,3.10
2022-10-03T09:20:24.987Z,2.10
2022-10-03T09:23:44.668Z,2.00
2022-10-03T09:27:04.735Z,1.80
2022-10-03T09:30:22.495Z,1.20
2022-10-03T09:33:58.008Z,1.60
2022-10-03T09:37:31.835Z,1.20
2022-10-03T09:41:10.432Z,1.30
2022-10-03T09:44:33.314Z,1.30
2022-10-03T09:47:43.883Z,1.60
2022-10-03T09:51:03.401Z,1.70
2022-10-03T09:54:23.271Z,2.30
2022-10-03T09:57:46.563Z,1.90
2022-10-03T10:01:31.960Z,3.10
2022-10-03T10:04:57.780Z,2.10
2022-10-03T10:08:33.554Z,3.20
2022-10-03T10:12:00.082Z,1.90
2022-10-03T10:15:40.963Z,1.60
2022-10-03T10:19:20.197Z,1.80
2022-10-03T10:22:31.903Z,2.10
2022-10-03T10:26:17.031Z,4.50
2022-10-03T10:30:03.041Z,5.70
2022-10-03T10:33:44.100Z,2.10
2022-10-03T10:37:23.022Z,2.40
2022-10-03T10:40:52.505Z,2.20
2022-10-03T10:44:31.970Z,2.20
2022-10-03T10:47:49.065Z,1.70
2022-10-03T10:51:21.537Z,1.50
2022-10-03T10:54:35.345Z,1.50
2022-10-03T10:58:04.480Z,1.70
2022-10-03T11:01:36.648Z,1.50
2022-10-03T11:05:31.914Z,2.20
2022-10-03T11:09:11.044Z,2.00
2022-10-03T11:12:50.124Z,2.00
2022-10-03T11:16:13.508Z,1.80
2022-10-03T11:19:46.280Z,2.00
2022-10-03T11:23:07.473Z,1.90
2022-10-03T11:26:39.076Z,4.10
2022-10-03T11:30:06.883Z,4.20
2022-10-03T11:33:30.013Z,4.30
2022-10-03T11:36:55.953Z,4.40
2022-10-03T11:40:23.819Z,4.20
2022-10-03T11:43:52.760Z,3.90
2022-10-03T11:47:15.749Z,3.10
2022-10-03T11:50:32.489Z,2.80
2022-10-03T11:54:26.397Z,2.40
2022-10-03T11:57:36.974Z,1.50
2022-10-03T12:00:42.126Z,1.20
2022-10-03T12:04:18.432Z,1.60
2022-10-03T12:07:58.568Z,2.20
2022-10-03T12:11:08.821Z,2.00
2022-10-03T12:14:27.027Z,2.60
2022-10-03T12:17:36.514Z,1.90
2022-10-03T12:21:25.857Z,2.00
2022-10-03T12:24:34.934Z,2.20
2022-10-03T12:27:55.015Z,1.60
